createdAt,value
2018-06-12T00:00:20.692Z,100707.20
2018-06-12T00:00:42.452Z,100710.73
2018-06-12T00:01:04.283Z,100719.02
2018-06-12T00:01:26.048Z,100714.68
2018-06-12T00:01:47.804Z,100713.36
2018-06-12T00:02:09.925Z,100716.91
2018-06-12T00:02:31.864Z,100719.92
2018-06-12T00:02:53.752Z,100719.53
2018-06-12T00:03:15.620Z,100719.02
2018-06-12T00:03:37.410Z,100721.62
2018-06-12T00:03:59.154Z,100716.66
2018-06-12T00:04:21.302Z,100719.28
2018-06-12T00:04:43.247Z,100720.48
2018-06-12T00:05:05.333Z,100719.53
2018-06-12T00:05:27.112Z,100723.47
2018-06-12T00:05:49.088Z,100723.10
2018-06-12T00:06:11.086Z,100719.53
2018-06-12T00:06:33.040Z,100722.95
2018-06-12T00:06:54.870Z,100714.68
2018-06-12T00:07:16.654Z,100716.39
2018-06-12T00:07:38.412Z,100718.10
2018-06-12T00:08:00.183Z,100719.92
2018-06-12T00:08:22.183Z,100721.24
2018-06-12T00:08:43.935Z,100717.70
2018-06-12T00:09:05.687Z,100718.10
2018-06-12T00:09:27.439Z,100717.30
2018-06-12T00:09:49.185Z,100715.88
2018-06-12T00:10:11.106Z,100712.45
2018-06-12T00:10:32.966Z,100712.05
2018-06-12T00:10:55.105Z,100717.70
2018-06-12T00:11:16.874Z,100714.16
2018-06-12T00:11:39.236Z,100709.42
2018-06-12T00:12:01.024Z,100715.08
2018-06-12T00:12:23.011Z,100716.78
2018-06-12T00:12:45.018Z,100713.77
2018-06-12T00:13:06.955Z,100712.85
2018-06-12T00:13:28.703Z,100715.48
2018-06-12T00:13:50.455Z,100713.77
2018-06-12T00:14:12.249Z,100713.36
2018-06-12T00:14:34.008Z,100719.02
2018-06-12T00:14:55.773Z,100714.16
2018-06-12T00:15:17.920Z,100712.45
2018-06-12T00:15:39.684Z,100717.19
2018-06-12T00:16:01.451Z,100711.54
2018-06-12T00:16:23.198Z,100712.45
2018-06-12T00:16:44.962Z,100716.78
2018-06-12T00:17:06.710Z,100714.16
2018-06-12T00:17:28.467Z,100716.39
2018-06-12T00:17:50.215Z,100711.54
2018-06-12T00:18:11.982Z,100710.63
2018-06-12T00:18:33.739Z,100712.85
2018-06-12T00:18:55.498Z,100710.63
2018-06-12T00:19:17.238Z,100713.36
2018-06-12T00:19:38.978Z,100715.88
2018-06-12T00:20:00.744Z,100710.22
2018-06-12T00:20:22.504Z,100707.59
2018-06-12T00:20:44.260Z,100711.54
2018-06-12T00:21:06.018Z,100709.31
2018-06-12T00:21:27.795Z,100712.85
2018-06-12T00:21:49.546Z,100712.45
2018-06-12T00:22:11.296Z,100714.68
2018-06-12T00:22:33.047Z,100717.30
2018-06-12T00:22:54.790Z,100709.42
2018-06-12T00:23:16.566Z,100714.28
2018-06-12T00:23:38.310Z,100716.91
2018-06-12T00:24:00.095Z,100712.45
2018-06-12T00:24:21.864Z,100712.45
2018-06-12T00:24:43.618Z,100715.59
2018-06-12T00:25:05.366Z,100715.59
2018-06-12T00:25:27.111Z,100716.91
2018-06-12T00:25:48.859Z,100716.91
2018-06-12T00:26:10.628Z,100714.68
2018-06-12T00:26:32.383Z,100718.61
2018-06-12T00:26:54.151Z,100713.77
2018-06-12T00:27:15.908Z,100719.53
2018-06-12T00:27:37.684Z,100716.39
2018-06-12T00:27:59.457Z,100713.36
2018-06-12T00:28:21.221Z,100713.77
2018-06-12T00:28:42.972Z,100715.98
2018-06-12T00:29:04.728Z,100719.16
2018-06-12T00:29:26.488Z,100717.85
2018-06-12T00:29:48.249Z,100714.28
2018-06-12T00:30:10.018Z,100716.91
2018-06-12T00:30:31.775Z,100718.22
2018-06-12T00:30:53.514Z,100719.16
2018-06-12T00:31:15.260Z,100721.39
2018-06-12T00:31:37.002Z,100715.59
2018-06-12T00:31:58.743Z,100715.59
2018-06-12T00:32:20.499Z,100712.97
2018-06-12T00:32:42.278Z,100719.02
2018-06-12T00:33:04.033Z,100715.98
2018-06-12T00:33:25.830Z,100719.53
2018-06-12T00:33:47.591Z,100712.97
2018-06-12T00:34:09.353Z,100722.55
2018-06-12T00:34:31.137Z,100716.91
2018-06-12T00:34:52.882Z,100720.48
2018-06-12T00:35:14.642Z,100713.91
2018-06-12T00:35:36.400Z,100712.60
2018-06-12T00:35:58.151Z,100720.48
2018-06-12T00:36:19.902Z,100713.52
2018-06-12T00:36:41.669Z,100717.85
2018-06-12T00:37:03.428Z,100716.91
2018-06-12T00:37:25.202Z,100712.60
2018-06-12T00:37:46.966Z,100714.68
2018-06-12T00:38:08.706Z,100716.54
2018-06-12T00:38:30.487Z,100711.29
2018-06-12T00:38:52.244Z,100711.66
2018-06-12T00:39:13.998Z,100715.98
2018-06-12T00:39:35.752Z,100714.68
2018-06-12T00:39:57.506Z,100713.91
2018-06-12T00:40:19.259Z,100714.68
2018-06-12T00:40:41.036Z,100715.98
2018-06-12T00:41:02.792Z,100710.73
2018-06-12T00:41:24.560Z,100716.91
2018-06-12T00:41:46.321Z,100719.53
2018-06-12T00:42:08.077Z,100713.77
2018-06-12T00:42:29.893Z,100712.05
2018-06-12T00:42:51.643Z,100709.83
2018-06-12T00:43:13.417Z,100713.36
2018-06-12T00:43:35.200Z,100710.73
2018-06-12T00:43:56.959Z,100713.36
2018-06-12T00:44:18.714Z,100716.91
2018-06-12T00:44:40.468Z,100711.29
2018-06-12T00:45:02.232Z,100712.45
2018-06-12T00:45:23.999Z,100719.16
2018-06-12T00:45:45.753Z,100717.30
2018-06-12T00:46:07.526Z,100712.97
2018-06-12T00:46:29.294Z,100710.73
2018-06-12T00:46:51.055Z,100711.66
2018-06-12T00:47:12.820Z,100712.97
2018-06-12T00:47:34.584Z,100709.42
2018-06-12T00:47:56.344Z,100713.77
2018-06-12T00:48:18.099Z,100706.80
2018-06-12T00:48:39.898Z,100706.80
2018-06-12T00:49:01.669Z,100709.03
2018-06-12T00:49:23.432Z,100709.03
2018-06-12T00:49:45.188Z,100716.91
2018-06-12T00:50:06.934Z,100712.05
2018-06-12T00:50:28.682Z,100709.03
2018-06-12T00:50:50.453Z,100710.34
2018-06-12T00:51:12.215Z,100710.34
2018-06-12T00:51:33.976Z,100712.97
2018-06-12T00:51:55.727Z,100709.42
2018-06-12T00:52:17.462Z,100715.23
2018-06-12T00:52:39.199Z,100713.77
2018-06-12T00:53:00.942Z,100714.68
2018-06-12T00:53:22.701Z,100717.30
2018-06-12T00:53:44.446Z,100708.52
2018-06-12T00:54:06.196Z,100709.42
2018-06-12T00:54:27.951Z,100712.97
2018-06-12T00:54:49.711Z,100709.42
2018-06-12T00:55:11.459Z,100708.11
2018-06-12T00:55:33.211Z,100707.34
2018-06-12T00:55:54.962Z,100702.86
2018-06-12T00:56:16.714Z,100707.72
2018-06-12T00:56:38.484Z,100704.98
2018-06-12T00:57:00.247Z,100704.17
2018-06-12T00:57:22.003Z,100700.64
2018-06-12T00:57:43.765Z,100701.55
2018-06-12T00:58:05.523Z,100705.89
2018-06-12T00:58:27.283Z,100702.86
2018-06-12T00:58:49.054Z,100700.23
2018-06-12T00:59:10.802Z,100702.47
2018-06-12T00:59:32.560Z,100709.03
2018-06-12T00:59:54.319Z,100702.47
2018-06-12T01:00:16.059Z,100701.16
2018-06-12T01:00:37.802Z,100704.33
2018-06-12T01:00:59.561Z,100700.39
2018-06-12T01:01:21.315Z,100709.17
2018-06-12T01:01:43.062Z,100701.70
2018-06-12T01:02:04.813Z,100706.55
2018-06-12T01:02:26.557Z,100712.20
2018-06-12T01:02:48.326Z,100712.20
2018-06-12T01:03:10.089Z,100704.84
2018-06-12T01:03:31.848Z,100704.33
2018-06-12T01:03:53.623Z,100709.58
2018-06-12T01:04:15.379Z,100707.86
2018-06-12T01:04:37.139Z,100703.02
2018-06-12T01:04:58.894Z,100706.95
2018-06-12T01:05:20.645Z,100703.92
2018-06-12T01:05:42.414Z,100709.17
2018-06-12T01:06:04.180Z,100700.90
2018-06-12T01:06:25.940Z,100708.78
2018-06-12T01:06:47.708Z,100707.06
2018-06-12T01:07:09.466Z,100703.92
2018-06-12T01:07:31.211Z,100706.95
2018-06-12T01:07:52.965Z,100694.73
2018-06-12T01:08:14.763Z,100701.70
2018-06-12T01:08:36.490Z,100708.37
2018-06-12T01:08:58.272Z,100702.61
2018-06-12T01:09:20.018Z,100701.70
2018-06-12T01:09:41.771Z,100698.27
2018-06-12T01:10:03.536Z,100700.39
2018-06-12T01:10:25.302Z,100696.05
2018-06-12T01:10:47.054Z,100701.70
2018-06-12T01:11:08.805Z,100702.61
2018-06-12T01:11:30.570Z,100701.30
2018-06-12T01:11:52.335Z,100696.45
2018-06-12T01:12:14.100Z,100696.05
2018-06-12T02:32:27.301Z,100702.80
2018-06-12T02:32:49.058Z,100707.66
2018-06-12T02:33:10.810Z,100706.34
2018-06-12T02:33:32.560Z,100708.97
2018-06-12T02:33:54.327Z,100706.34
2018-06-12T02:34:16.099Z,100709.88
2018-06-12T02:34:37.844Z,100708.97
2018-06-12T02:34:59.590Z,100708.05
2018-06-12T02:35:21.411Z,100704.12
2018-06-12T02:35:43.107Z,100711.20
2018-06-12T02:36:04.860Z,100708.97
2018-06-12T02:36:26.611Z,100707.66
2018-06-12T02:36:48.350Z,100714.22
2018-06-12T02:37:10.107Z,100713.02
2018-06-12T02:37:31.859Z,100706.34
2018-06-12T02:37:53.635Z,100702.92
2018-06-12T02:38:15.395Z,100706.34
2018-06-12T02:38:37.156Z,100708.97
2018-06-12T02:38:58.913Z,100704.23
2018-06-12T02:39:20.839Z,100707.26
2018-06-12T02:39:42.595Z,100702.52
2018-06-12T02:40:04.340Z,100705.55
2018-06-12T02:40:26.103Z,100707.66
2018-06-12T02:40:47.852Z,100705.95
2018-06-12T02:41:09.595Z,100709.48
2018-06-12T02:41:31.369Z,100711.70
2018-06-12T02:41:53.118Z,100709.48
2018-06-12T02:42:14.870Z,100707.77
2018-06-12T02:42:36.631Z,100709.48
2018-06-12T02:42:58.391Z,100700.81
2018-06-12T02:43:20.153Z,100712.11
2018-06-12T02:43:41.915Z,100708.69
2018-06-12T02:44:03.683Z,100710.40
2018-06-12T02:44:25.482Z,100707.77
2018-06-12T02:44:47.240Z,100706.45
2018-06-12T02:45:08.986Z,100709.48
2018-06-12T02:45:30.736Z,100705.66
2018-06-12T02:45:52.496Z,100706.97
2018-06-12T02:46:14.253Z,100707.38
2018-06-12T02:46:36.011Z,100711.83
2018-06-12T02:46:57.770Z,100712.22
2018-06-12T02:47:19.531Z,100712.22
2018-06-12T02:47:41.279Z,100712.63
2018-06-12T02:48:03.026Z,100710.40
2018-06-12T02:48:24.788Z,100711.70
2018-06-12T02:48:46.544Z,100706.45
2018-06-12T02:49:08.293Z,100710.91
2018-06-12T02:49:30.075Z,100713.94
2018-06-12T02:49:51.834Z,100714.45
2018-06-12T02:50:13.603Z,100710.91
2018-06-12T02:50:35.354Z,100713.94
2018-06-12T02:50:57.110Z,100708.69
2018-06-12T02:51:18.855Z,100708.69
2018-06-12T02:51:40.611Z,100710.91
2018-06-12T02:52:02.367Z,100710.91
2018-06-12T02:52:24.128Z,100709.59
2018-06-12T02:52:45.892Z,100707.89
2018-06-12T02:53:07.647Z,100704.34
2018-06-12T02:53:29.405Z,100713.53
2018-06-12T02:53:51.164Z,100707.89
2018-06-12T02:54:12.928Z,100711.42
2018-06-12T02:54:34.702Z,100707.48
2018-06-12T02:54:56.459Z,100707.48
2018-06-12T02:55:18.221Z,100712.73
2018-06-12T02:55:39.967Z,100709.20
2018-06-12T02:56:01.728Z,100709.20
2018-06-12T02:56:23.517Z,100710.52
2018-06-12T02:56:45.270Z,100704.34
2018-06-12T02:57:07.012Z,100712.73
2018-06-12T02:57:28.776Z,100711.83
2018-06-12T02:57:50.540Z,100710.11
2018-06-12T02:58:12.320Z,100715.36
2018-06-12T02:58:34.074Z,100712.22
2018-06-12T02:58:55.828Z,100711.42
2018-06-12T02:59:17.583Z,100710.52
2018-06-12T02:59:39.374Z,100710.11
2018-06-12T03:00:01.140Z,100713.66
2018-06-12T03:00:22.887Z,100709.31
2018-06-12T03:00:44.627Z,100715.88
2018-06-12T03:01:06.389Z,100717.59
2018-06-12T03:01:28.143Z,100709.71
2018-06-12T03:01:49.900Z,100712.73
2018-06-12T03:02:11.647Z,100710.11
2018-06-12T03:02:33.402Z,100715.36
2018-06-12T03:02:55.160Z,100707.48
2018-06-12T03:03:16.915Z,100707.48
2018-06-12T03:03:38.671Z,100710.52
2018-06-12T03:04:00.771Z,100714.05
2018-06-12T03:04:22.523Z,100705.27
2018-06-12T03:04:44.300Z,100710.11
2018-06-12T03:05:06.050Z,100710.11
2018-06-12T03:05:27.798Z,100707.89
2018-06-12T03:05:49.588Z,100711.42
2018-06-12T03:06:11.326Z,100703.03
2018-06-12T03:06:33.089Z,100708.80
2018-06-12T03:06:54.904Z,100711.42
2018-06-12T03:07:16.672Z,100707.48
2018-06-12T03:07:38.412Z,100708.00
2018-06-12T03:08:00.170Z,100706.57
2018-06-12T03:08:21.931Z,100704.86
2018-06-12T03:08:43.692Z,100707.48
2018-06-12T03:09:05.431Z,100713.13
2018-06-12T03:09:27.193Z,100713.13
2018-06-12T03:09:48.967Z,100713.13
2018-06-12T03:10:10.719Z,100713.13
2018-06-12T03:10:32.472Z,100707.48
2018-06-12T03:10:54.230Z,100706.97
2018-06-12T03:11:15.973Z,100715.88
2018-06-12T03:11:37.727Z,100712.34
2018-06-12T03:11:59.497Z,100707.48
2018-06-12T03:12:21.252Z,100713.66
2018-06-12T03:12:43.002Z,100723.23
2018-06-12T03:13:04.775Z,100711.42
2018-06-12T03:13:26.536Z,100713.66
2018-06-12T03:13:48.290Z,100715.88
2018-06-12T03:14:10.056Z,100714.16
2018-06-12T03:14:31.802Z,100715.48
2018-06-12T03:14:53.596Z,100714.05
2018-06-12T03:15:15.375Z,100719.41
2018-06-12T03:15:37.128Z,100711.94
2018-06-12T03:15:58.886Z,100714.56
2018-06-12T03:16:20.639Z,100715.88
2018-06-12T03:16:42.390Z,100712.45
2018-06-12T03:17:04.131Z,100715.48
2018-06-12T03:17:25.871Z,100711.54
2018-06-12T03:17:47.645Z,100714.16
2018-06-12T03:18:09.401Z,100717.19
2018-06-12T03:18:31.150Z,100716.39
2018-06-12T03:18:52.902Z,100716.39
2018-06-12T03:19:14.666Z,100719.41
2018-06-12T03:19:36.423Z,100712.34
2018-06-12T03:19:58.208Z,100712.85
2018-06-12T03:20:19.956Z,100712.45
2018-06-12T03:20:41.719Z,100711.14
2018-06-12T03:21:03.486Z,100715.98
2018-06-12T03:21:25.247Z,100713.77
2018-06-12T03:21:46.986Z,100717.70
2018-06-12T03:22:08.745Z,100711.14
2018-06-12T03:22:30.495Z,100707.59
2018-06-12T03:22:52.248Z,100711.14
2018-06-12T03:23:14.076Z,100710.63
2018-06-12T03:23:35.811Z,100711.54
2018-06-12T03:23:57.567Z,100707.59
2018-06-12T03:24:19.320Z,100715.48
2018-06-12T03:24:41.076Z,100711.14
2018-06-12T03:25:02.851Z,100711.66
2018-06-12T03:25:24.608Z,100702.86
2018-06-12T03:25:46.376Z,100708.52
2018-06-12T03:26:08.127Z,100707.59
2018-06-12T03:26:29.874Z,100711.54
2018-06-12T03:26:51.641Z,100713.77
2018-06-12T03:27:13.387Z,100707.20
2018-06-12T03:27:35.146Z,100713.77
2018-06-12T03:27:56.922Z,100708.00
2018-06-12T03:28:18.676Z,100709.83
2018-06-12T03:28:40.433Z,100711.94
2018-06-12T03:29:02.186Z,100713.25
2018-06-12T03:29:23.935Z,100711.54
2018-06-12T03:29:45.712Z,100709.83
2018-06-12T03:30:07.487Z,100720.73
2018-06-12T03:30:29.234Z,100711.54
2018-06-12T03:30:50.991Z,100712.45
2018-06-12T03:31:12.752Z,100711.94
2018-06-12T03:31:34.506Z,100711.14
2018-06-12T03:31:56.275Z,100714.16
2018-06-12T03:32:18.031Z,100716.39
2018-06-12T03:32:39.784Z,100714.28
2018-06-12T03:33:01.532Z,100714.68
2018-06-12T03:33:23.287Z,100715.88
2018-06-12T03:33:45.047Z,100717.70
2018-06-12T03:34:06.816Z,100710.63
2018-06-12T03:34:28.567Z,100711.14
2018-06-12T03:34:50.317Z,100713.36
2018-06-12T03:35:12.100Z,100711.94
2018-06-12T03:35:33.856Z,100711.14
2018-06-12T03:35:55.598Z,100716.39
2018-06-12T03:36:17.371Z,100712.85
2018-06-12T03:36:39.120Z,100715.08
2018-06-12T03:37:00.861Z,100708.91
2018-06-12T03:37:22.627Z,100714.16
2018-06-12T03:37:44.383Z,100713.25
2018-06-12T03:38:06.123Z,100713.77
2018-06-12T03:38:27.877Z,100714.16
2018-06-12T03:38:49.684Z,100710.73
2018-06-12T03:39:13.557Z,100712.05
2018-06-12T03:39:35.315Z,100705.48
2018-06-12T03:39:57.072Z,100711.14
2018-06-12T03:40:18.846Z,100709.83
2018-06-12T03:40:40.597Z,100712.45
2018-06-12T03:41:02.338Z,100710.73
2018-06-12T03:41:24.092Z,100709.31
2018-06-12T03:41:45.839Z,100705.89
2018-06-12T03:42:07.591Z,100710.22
2018-06-12T03:42:29.340Z,100708.52
2018-06-12T03:42:51.098Z,100708.11
2018-06-12T03:43:12.846Z,100706.80
2018-06-12T03:43:34.600Z,100709.42
2018-06-12T03:43:56.355Z,100709.83
2018-06-12T03:44:18.113Z,100707.59
2018-06-12T03:44:39.863Z,100703.66
2018-06-12T03:45:01.607Z,100707.20
2018-06-12T03:45:23.402Z,100705.89
2018-06-12T03:45:45.158Z,100702.35
2018-06-12T03:46:06.920Z,100703.66
2018-06-12T03:46:28.683Z,100708.91
2018-06-12T03:46:50.440Z,100707.59
2018-06-12T03:47:12.209Z,100709.83
2018-06-12T03:47:33.955Z,100708.52
2018-06-12T03:47:55.716Z,100707.59
2018-06-12T03:48:17.454Z,100704.17
2018-06-12T03:48:39.206Z,100709.42
2018-06-12T03:49:00.946Z,100709.83
2018-06-12T03:49:22.698Z,100708.11
2018-06-12T03:49:44.438Z,100709.83
2018-06-12T03:50:06.208Z,100706.69
2018-06-12T03:50:27.969Z,100711.14
2018-06-12T03:50:49.715Z,100709.83
2018-06-12T03:51:11.468Z,100709.83
2018-06-12T03:51:33.221Z,100711.14
2018-06-12T03:51:54.968Z,100703.27
2018-06-12T03:52:16.726Z,100707.20
2018-06-12T03:52:38.491Z,100708.11
2018-06-12T03:53:00.241Z,100708.91
2018-06-12T03:53:21.982Z,100707.59
2018-06-12T03:53:43.751Z,100704.98
2018-06-12T03:54:05.506Z,100706.41
2018-06-12T03:54:27.255Z,100711.14
2018-06-12T03:54:49.017Z,100703.27
2018-06-12T03:55:10.788Z,100704.06
2018-06-12T03:55:32.584Z,100711.54
2018-06-12T03:55:54.344Z,100705.37
2018-06-12T03:56:16.699Z,100709.83
2018-06-12T03:56:38.451Z,100702.35
2018-06-12T03:57:00.210Z,100704.98
2018-06-12T03:57:21.967Z,100707.59
2018-06-12T03:57:43.730Z,100713.77
2018-06-12T03:58:05.505Z,100704.98
2018-06-12T03:58:27.263Z,100709.83
2018-06-12T03:58:49.032Z,100709.83
2018-06-12T03:59:10.798Z,100712.45
2018-06-12T04:46:18.881Z,100704.17
2018-06-12T04:46:40.635Z,100694.08
2018-06-12T04:47:02.403Z,100699.33
2018-06-12T04:47:24.175Z,100698.41
2018-06-12T04:47:45.920Z,100704.17
2018-06-12T04:48:07.685Z,100701.95
2018-06-12T04:48:29.448Z,100705.89
2018-06-12T04:48:51.198Z,100701.03
2018-06-12T04:49:12.958Z,100705.48
2018-06-12T04:49:34.750Z,100706.41
2018-06-12T04:49:56.503Z,100701.55
2018-06-12T04:50:18.264Z,100706.41
2018-06-12T04:50:40.025Z,100709.97
2018-06-12T04:51:01.799Z,100706.41
2018-06-12T04:51:23.556Z,100702.47
2018-06-12T04:51:45.322Z,100701.55
2018-06-12T04:52:07.086Z,100701.70
2018-06-12T04:52:28.861Z,100699.84
2018-06-12T04:52:50.637Z,100699.84
2018-06-12T04:53:12.623Z,100703.78
2018-06-12T04:53:34.378Z,100701.16
2018-06-12T04:53:56.151Z,100708.27
2018-06-12T04:54:17.900Z,100702.10
2018-06-12T04:54:39.727Z,100709.03
2018-06-12T04:55:01.497Z,100706.80
2018-06-12T04:55:23.249Z,100705.09
2018-06-12T04:55:45.012Z,100706.80
2018-06-12T04:56:06.788Z,100704.58
2018-06-12T04:56:28.661Z,100708.52
2018-06-12T04:56:50.569Z,100710.34
2018-06-12T04:57:12.337Z,100704.17
2018-06-12T04:57:34.112Z,100709.42
2018-06-12T04:57:55.909Z,100704.98
2018-06-12T04:58:17.665Z,100697.90
2018-06-12T04:58:39.432Z,100706.69
2018-06-12T04:59:01.193Z,100703.66
2018-06-12T04:59:22.996Z,100701.03
2018-06-12T04:59:44.771Z,100701.44
2018-06-12T05:00:06.571Z,100701.03
2018-06-12T05:00:28.336Z,100698.81
2018-06-12T05:00:50.103Z,100704.06
2018-06-12T05:01:11.857Z,100704.86
2018-06-12T05:01:33.629Z,100699.21
2018-06-12T05:01:55.383Z,100696.59
2018-06-12T05:02:17.139Z,100696.59
2018-06-12T05:02:38.925Z,100698.30
2018-06-12T05:03:00.684Z,100703.66
2018-06-12T05:03:22.427Z,100695.27
2018-06-12T05:03:44.194Z,100694.36
2018-06-12T05:04:05.959Z,100696.59
2018-06-12T05:04:27.716Z,100690.42
2018-06-12T05:04:49.523Z,100699.61
2018-06-12T05:05:11.284Z,100696.59
2018-06-12T05:05:33.043Z,100693.96
2018-06-12T05:05:54.823Z,100695.67
2018-06-12T05:06:16.570Z,100696.47
2018-06-12T05:06:38.319Z,100693.05
2018-06-12T05:07:00.071Z,100689.91
2018-06-12T05:07:21.822Z,100695.27
2018-06-12T05:07:43.571Z,100688.20
2018-06-12T05:08:05.310Z,100693.33
2018-06-12T05:08:27.068Z,100692.94
2018-06-12T05:08:48.818Z,100695.16
2018-06-12T05:09:10.574Z,100697.38
2018-06-12T05:09:32.331Z,100697.38
2018-06-12T05:09:54.114Z,100696.59
2018-06-12T05:10:15.872Z,100698.30
2018-06-12T05:10:37.660Z,100692.13
2018-06-12T05:10:59.392Z,100695.56
2018-06-12T05:11:21.154Z,100695.16
2018-06-12T05:11:42.902Z,100694.76
2018-06-12T05:12:04.652Z,100692.53
2018-06-12T05:12:26.404Z,100693.84
2018-06-12T05:12:48.235Z,100704.34
2018-06-12T05:13:09.995Z,100699.61
2018-06-12T05:13:31.783Z,100700.41
2018-06-12T05:13:53.547Z,100700.92
2018-06-12T05:14:15.290Z,100695.16
2018-06-12T05:14:37.097Z,100699.09
2018-06-12T05:14:58.888Z,100698.19
2018-06-12T05:15:20.646Z,100693.84
2018-06-12T05:15:42.395Z,100698.19
2018-06-12T05:16:04.139Z,100700.81
2018-06-12T05:16:25.893Z,100695.95
2018-06-12T05:16:47.684Z,100701.32
2018-06-12T05:17:09.440Z,100701.72
2018-06-12T05:17:31.187Z,100697.78
2018-06-12T05:17:52.950Z,100699.50
2018-06-12T05:18:14.713Z,100692.02
2018-06-12T05:18:36.470Z,100695.56
2018-06-12T05:18:58.233Z,100698.19
2018-06-12T05:19:19.988Z,100692.94
2018-06-12T05:19:41.814Z,100691.22
2018-06-12T05:20:03.563Z,100695.16
2018-06-12T05:20:25.334Z,100699.09
2018-06-12T05:20:47.092Z,100694.25
2018-06-12T05:21:08.838Z,100693.84
2018-06-12T05:21:30.587Z,100700.41
2018-06-12T05:21:52.369Z,100700.41
2018-06-12T05:22:14.153Z,100696.47
2018-06-12T05:22:35.921Z,100699.50
2018-06-12T05:22:57.684Z,100697.78
2018-06-12T05:23:19.457Z,100694.25
2018-06-12T05:23:41.219Z,100695.05
2018-06-12T05:24:02.974Z,100694.25
2018-06-12T05:24:24.723Z,100695.56
2018-06-12T05:24:46.481Z,100699.50
2018-06-12T05:25:08.245Z,100698.59
2018-06-12T05:25:30.031Z,100695.95
2018-06-12T05:25:51.801Z,100693.73
2018-06-12T05:26:13.549Z,100697.27
2018-06-12T05:26:35.286Z,100694.64
2018-06-12T05:26:57.039Z,100695.56
2018-06-12T05:27:18.812Z,100699.50
2018-06-12T05:27:40.574Z,100697.67
2018-06-12T05:28:02.353Z,100702.92
2018-06-12T05:28:24.101Z,100702.13
2018-06-12T05:28:45.876Z,100697.67
2018-06-12T05:29:07.635Z,100694.13
2018-06-12T05:29:29.403Z,100695.45
2018-06-12T05:29:51.160Z,100702.92
2018-06-12T05:30:12.960Z,100704.75
2018-06-12T05:30:34.719Z,100699.89
2018-06-12T05:30:56.496Z,100698.19
2018-06-12T05:31:18.257Z,100696.36
2018-06-12T05:31:40.013Z,100702.92
2018-06-12T05:32:01.783Z,100700.81
2018-06-12T05:32:23.547Z,100702.13
2018-06-12T05:32:45.302Z,100703.44
2018-06-12T05:33:07.057Z,100706.06
2018-06-12T05:33:28.804Z,100703.03
2018-06-12T05:33:50.568Z,100703.95
2018-06-12T05:34:12.334Z,100702.13
2018-06-12T05:34:34.092Z,100708.28
2018-06-12T05:34:55.851Z,100695.56
2018-06-12T05:35:17.631Z,100702.52
2018-06-12T05:35:39.393Z,100703.83
2018-06-12T05:36:01.148Z,100695.95
2018-06-12T05:36:23.320Z,100697.27
2018-06-12T05:36:45.084Z,100698.59
2018-06-12T05:37:07.271Z,100707.77
2018-06-12T05:37:29.034Z,100704.34
2018-06-12T05:37:50.791Z,100705.14
2018-06-12T05:38:12.543Z,100704.75
2018-06-12T05:38:34.323Z,100701.61
2018-06-12T05:38:56.063Z,100698.47
2018-06-12T05:39:17.848Z,100706.86
2018-06-12T05:39:39.604Z,100705.55
2018-06-12T05:40:01.350Z,100706.45
2018-06-12T05:40:23.147Z,100703.44
2018-06-12T05:40:44.902Z,100702.13
2018-06-12T05:41:06.657Z,100699.50
2018-06-12T05:41:28.419Z,100703.83
2018-06-12T05:41:50.184Z,100704.63
2018-06-12T05:42:11.936Z,100708.69
2018-06-12T05:42:33.721Z,100707.77
2018-06-12T05:42:55.487Z,100707.77
2018-06-12T05:43:17.251Z,100702.13
2018-06-12T05:43:39.011Z,100707.38
2018-06-12T05:44:00.755Z,100707.77
2018-06-12T05:44:22.511Z,100706.06
2018-06-12T05:44:44.259Z,100708.69
2018-06-12T05:45:06.024Z,100705.55
2018-06-12T05:45:27.819Z,100708.69
2018-06-12T05:45:49.571Z,100703.44
2018-06-12T05:46:11.332Z,100709.08
2018-06-12T05:46:33.090Z,100710.00
2018-06-12T05:46:54.830Z,100717.08
2018-06-12T05:47:16.607Z,100710.00
2018-06-12T05:47:38.359Z,100710.80
2018-06-12T05:48:00.111Z,100703.31
2018-06-12T05:48:21.854Z,100714.84
2018-06-12T05:48:43.627Z,100712.11
2018-06-12T05:49:05.387Z,100705.14
2018-06-12T05:49:27.135Z,100702.92
2018-06-12T05:49:48.880Z,100710.00
2018-06-12T05:50:10.639Z,100706.06
2018-06-12T05:50:32.416Z,100706.45
2018-06-12T05:50:54.174Z,100705.55
2018-06-12T05:51:15.920Z,100713.94
2018-06-12T05:51:37.679Z,100713.42
2018-06-12T05:51:59.442Z,100705.55
2018-06-12T05:52:21.203Z,100709.08
2018-06-12T05:52:42.984Z,100709.08
2018-06-12T05:53:04.732Z,100712.22
2018-06-12T05:53:26.517Z,100712.11
2018-06-12T05:53:48.298Z,100711.70
2018-06-12T05:54:10.056Z,100714.84
2018-06-12T05:54:31.825Z,100709.08
2018-06-12T05:54:53.729Z,100710.00
2018-06-12T05:55:15.497Z,100715.25
2018-06-12T05:55:37.290Z,100712.63
2018-06-12T05:55:59.070Z,100713.94
2018-06-12T05:56:20.818Z,100713.53
2018-06-12T05:56:42.581Z,100716.95
2018-06-12T05:57:04.339Z,100719.19
2018-06-12T05:57:26.096Z,100716.95
2018-06-12T05:57:47.842Z,100719.07
2018-06-12T05:58:09.595Z,100722.61
2018-06-12T05:58:31.368Z,100716.95
2018-06-12T05:58:53.119Z,100719.98
2018-06-12T05:59:14.866Z,100721.81
2018-06-12T05:59:36.635Z,100720.89
2018-06-12T05:59:58.389Z,100721.30
2018-06-12T06:00:20.157Z,100724.83
2018-06-12T06:00:41.957Z,100723.52
2018-06-12T06:01:03.730Z,100720.89
2018-06-12T06:01:25.484Z,100721.30
2018-06-12T06:01:47.238Z,100730.08
2018-06-12T06:02:09.012Z,100718.67
2018-06-12T06:02:30.779Z,100723.52
2018-06-12T06:02:52.536Z,100724.95
2018-06-12T06:03:14.292Z,100721.81
2018-06-12T06:03:36.055Z,100725.75
2018-06-12T06:03:57.823Z,100727.06
2018-06-12T06:04:19.583Z,100720.50
2018-06-12T06:04:41.347Z,100728.89
2018-06-12T06:05:03.103Z,100726.66
2018-06-12T06:05:24.851Z,100727.97
2018-06-12T06:05:46.640Z,100726.27
2018-06-12T06:06:08.387Z,100731.11
2018-06-12T06:06:30.135Z,100735.84
2018-06-12T06:06:51.887Z,100730.20
2018-06-12T06:07:13.638Z,100727.58
2018-06-12T06:07:35.416Z,100730.59
2018-06-12T06:07:57.207Z,100728.89
2018-06-12T06:08:18.959Z,100733.73
2018-06-12T06:08:40.717Z,100731.11
2018-06-12T06:09:02.480Z,100727.58
2018-06-12T06:09:24.240Z,100726.27
2018-06-12T06:09:46.010Z,100727.06
2018-06-12T06:10:07.788Z,100738.47
2018-06-12T06:10:29.551Z,100733.62
2018-06-12T06:10:51.322Z,100735.84
2018-06-12T06:11:13.085Z,100735.84
2018-06-12T06:11:34.836Z,100728.89
2018-06-12T06:11:56.583Z,100735.05
2018-06-12T06:12:18.345Z,100730.59
2018-06-12T06:12:40.115Z,100733.22
2018-06-12T06:13:01.878Z,100732.83
2018-06-12T06:13:23.623Z,100731.91
2018-06-12T06:13:45.396Z,100735.05
2018-06-12T06:14:07.157Z,100731.52
2018-06-12T06:14:28.944Z,100736.77
2018-06-12T06:14:50.688Z,100737.67
2018-06-12T06:15:12.443Z,100737.67